• Join FlightAware (Why Join?)
  • Login
  • US Flag 
03:20AM EDT


 

Airport Tracker/Info


-or-


 

Live Flight TrackerFlight Track Log ✈ BJS535 ✈ 04-May-2013 ✈ KPWK - KSDF

Flight Track Log - Related Links

Times and Time Zones

All times are in EDT time to prevent confusion due to time zone crossing. See the BJS535 flight status page for this flight to view local times or setup timezone preferences in your user account.

Time Position Orientation Groundspeed Altitude Reporting Facility
EDT Latitude Longitude Course Direction KTS MPH feet Rate Location/Type
07:05PM 42.1333 -87.9167 12° North 163 188 1,500  Level Chicago TRACON
07:06PM 42.1764 -87.9047 12° North 207 238 3,100 1,320 Climbing Chicago Center
07:07PM 42.2319 -87.8814 17° North 210 242 3,900 1,020 Climbing Chicago Center
07:08PM 42.2208 -87.8008 101° East 227 261 5,200 2,880 Climbing Chicago Center
07:09PM 42.1672 -87.8453 212° Southwest 263 303 9,900 3,900 Climbing Chicago Center
07:10PM 42.0967 -87.8625 190° South 278 320 13,300 3,000 Climbing Chicago Center
07:11PM 42.0114 -87.8517 175° South 315 362 16,100 2,880 Climbing Chicago Center
07:12PM 41.9178 -87.8303 170° South 340 391 19,300 3,180 Climbing Chicago Center
07:13PM 41.8003 -87.8058 171° South 354 407 22,700 2,700 Climbing Chicago Center
07:14PM 41.6961 -87.7814 170° South 376 433 24,900 1,980 Climbing Chicago Center
07:15PM 41.5847 -87.7586 171° South 399 459 26,800 1,800 Climbing Chicago Center
07:16PM 41.4686 -87.7344 171° South 414 476 28,600 1,740 Climbing Chicago Center
07:17PM 41.3472 -87.7253 177° South 438 504 30,400 1,140 Climbing Chicago Center
07:18PM 41.2250 -87.7261 180° South 436 502 31,000 240 Climbing Chicago Center
07:19PM 41.1050 -87.7128 175° South 433 498 31,000  Level Chicago Center
07:20PM 40.9864 -87.6972 174° South 430 495 31,000  Level Chicago Center
07:21PM 40.8681 -87.6794 174° South 429 494 31,000  Level Chicago Center
07:22PM 40.7589 -87.6283 160° South 425 489 31,000  Level Chicago Center
07:23PM 40.6347 -87.5481 154° Southeast 417 480 31,000 -120 Level Chicago Center
07:24PM 40.5319 -87.4803 153° Southeast 416 479 30,800 -600 Descending Chicago Center
07:25PM 40.4267 -87.4175 156° South 423 487 29,800 -1,020 Descending Chicago Center
07:27PM 40.3097 -87.3967 172° South 430 495 28,800 -1,020 Descending Chicago Center
07:28PM 40.1936 -87.3767 173° South 427 491 27,800 -960 Descending Chicago Center
07:28PM 40.0997 -87.3572 171° South 425 489 27,200 -480 Descending Indianapolis Center
07:29PM 39.9844 -87.3375 173° South 422 486 27,000 -300 Descending Indianapolis Center
07:30PM 39.8722 -87.3178 172° South 413 475 26,700 -660 Descending Indianapolis Center
07:31PM 39.7606 -87.2978 172° South 410 472 25,700 -1,020 Descending Indianapolis Center
07:32PM 39.6483 -87.2778 172° South 410 472 24,700 -780 Descending Indianapolis Center
07:33PM 39.5367 -87.2572 172° South 409 471 24,200 -360 Descending Indianapolis Center
07:34PM 39.4294 -87.2242 167° South 399 459 24,000 -120 Descending Indianapolis Center
07:35PM 39.3256 -87.1781 161° South 397 457 24,000  Level Indianapolis Center
07:36PM 39.2192 -87.1339 162° South 401 461 24,000  Level Indianapolis Center
07:37PM 39.1075 -87.0842 161° South 404 465 24,000  Level Indianapolis Center
07:38PM 39.0003 -87.0389 162° South 404 465 24,000  Level Indianapolis Center
07:39PM 38.8950 -86.9931 161° South 398 458 24,000 -300 Level Indianapolis Center
07:40PM 38.7897 -86.9483 162° South 396 456 23,400 -1,560 Descending Indianapolis Center
07:41PM 38.6700 -86.8972 162° South 376 433 20,900 -2,160 Descending Indianapolis Center
07:42PM 38.5725 -86.8558 162° South 366 421 19,100 -1,740 Descending Indianapolis Center
07:43PM 38.4744 -86.8139 161° South 365 420 17,400 -1,800 Descending Indianapolis Center
07:45PM 38.3789 -86.7736 162° South 357 411 15,500 -1,860 Descending Indianapolis Center
07:46PM 38.2853 -86.7347 162° South 348 400 13,700 -1,680 Descending Indianapolis Center
07:47PM 38.2467 -86.6358 116° Southeast 325 374 12,200 -1,320 Descending Indianapolis Center
07:48PM 38.2325 -86.5311 100° East 305 351 11,000 -1,140 Descending Indianapolis Center
07:49PM 38.2194 -86.4356 100° East 280 322 9,900 -1,320 Descending Indianapolis Center
07:50PM 38.2103 -86.3497 98° East 250 288 8,400 -1,560 Descending Indianapolis Center
07:51PM 38.2494 -86.2714 57° Northeast 256 295 6,800 -1,260 Descending Indianapolis Center
07:52PM 38.2861 -86.1950 59° Northeast 254 292 5,900 -720 Descending Indianapolis Center
07:53PM 38.3131 -86.1150 67° East 246 283 5,400 -960 Descending Indianapolis Center
07:54PM 38.3200 -86.0272 84° East 245 282 4,000 -780 Descending Indianapolis Center
07:55PM 38.3269 -85.9419 84° East 245 282 3,900 -540 Descending Indianapolis Center
07:56PM 38.3350 -85.8567 83° East 242 278 3,000 -480 Descending Indianapolis Center
07:57PM 38.3250 -85.7842 100° East 233 268 3,000 -300 Level Indianapolis Center
07:58PM 38.2819 -85.7636 159° South 191 220 2,500 -480 Descending Indianapolis Center
07:59PM 38.2292 -85.7469 166° South 180 207 2,100 -420 Descending Indianapolis Center
08:01PM 38.1741 -85.7365 132° Southeast  Level Estimated
08:08PM 38.1741 -85.7365 293° West  Level Estimated